Time;durP1;ratioP1;P1;durP2;ratioP2;P2;SDS_P1;SDS_P2;PMS_P1;PMS_P2;Temp;Humidity;BMP_temperature;BMP_pressure;BME280_temperature;BME280_humidity;BME280_pressure;Samples;Min_cycle;Max_cycle;Signal;HPM_P1;HPM_P2
2023/01/06 00:01:31;;;;;;;0.10;0.10;;;;;;;;;;4983617;28;20037;-82
2023/01/06 00:04:01;;;;;;;0.10;0.10;;;;;;;;;;5002089;28;20420;-83
2023/01/06 00:06:29;;;;;;;0.17;0.17;;;;;;;;;;5018057;28;20101;-82
2023/01/06 00:08:56;;;;;;;0.10;0.10;;;;;;;;;;5017052;28;20036;-82
2023/01/06 00:11:23;;;;;;;0.20;0.20;;;;;;;;;;5017725;28;20092;-82
2023/01/06 00:13:49;;;;;;;0.10;0.10;;;;;;;;;;5017185;28;20139;-83
2023/01/06 00:16:17;;;;;;;0.10;0.10;;;;;;;;;;5018251;28;20171;-81
2023/01/06 00:18:43;;;;;;;0.10;0.10;;;;;;;;;;4987494;28;20053;-83
2023/01/06 00:21:10;;;;;;;0.98;0.98;;;;;;;;;;4989662;28;20455;-85
2023/01/06 00:23:37;;;;;;;1.08;0.85;;;;;;;;;;5017795;28;20045;-84
2023/01/06 00:26:03;;;;;;;0.10;0.10;;;;;;;;;;5002153;28;20533;-82
2023/01/06 00:28:29;;;;;;;0.10;0.10;;;;;;;;;;5016241;28;20045;-84
2023/01/06 00:30:55;;;;;;;0.40;0.40;;;;;;;;;;5002833;28;20063;-82
2023/01/06 00:33:22;;;;;;;0.10;0.10;;;;;;;;;;4992973;28;21027;-82
2023/01/06 00:35:48;;;;;;;0.10;0.10;;;;;;;;;;4957735;28;20263;-82
2023/01/06 00:38:14;;;;;;;0.10;0.10;;;;;;;;;;4955469;28;20152;-82
2023/01/06 00:40:40;;;;;;;0.50;0.50;;;;;;;;;;4956395;28;20061;-83
2023/01/06 00:43:06;;;;;;;0.10;0.10;;;;;;;;;;4971584;28;20772;-83
2023/01/06 00:45:32;;;;;;;0.10;0.10;;;;;;;;;;4979204;28;20085;-81
2023/01/06 00:47:58;;;;;;;0.10;0.10;;;;;;;;;;4977938;28;20177;-81
2023/01/06 00:50:24;;;;;;;0.10;0.10;;;;;;;;;;4957842;28;20078;-81
2023/01/06 00:52:51;;;;;;;0.00;0.00;;;;;;;;;;4960320;28;20511;-81
2023/01/06 00:55:17;;;;;;;0.10;0.10;;;;;;;;;;4978405;28;20066;-79
2023/01/06 00:57:43;;;;;;;0.10;0.10;;;;;;;;;;4956732;28;20053;-83
2023/01/06 01:00:09;;;;;;;0.20;0.20;;;;;;;;;;4957261;28;20062;-81
2023/01/06 01:02:35;;;;;;;0.10;0.10;;;;;;;;;;4977753;28;20042;-81
2023/01/06 01:05:01;;;;;;;0.10;0.10;;;;;;;;;;4956515;28;20070;-82
2023/01/06 01:07:28;;;;;;;0.15;0.15;;;;;;;;;;4977603;28;20067;-83
2023/01/06 01:09:54;;;;;;;0.10;0.10;;;;;;;;;;4975500;28;20053;-81
2023/01/06 01:12:20;;;;;;;0.10;0.10;;;;;;;;;;4977081;28;20138;-81
2023/01/06 01:14:48;;;;;;;0.20;0.20;;;;;;;;;;4956335;28;20046;-81
2023/01/06 01:17:25;;;;;;;0.10;0.10;;;;;;;;;;4976842;28;20038;-82
2023/01/06 01:19:53;;;;;;;0.10;0.10;;;;;;;;;;4975709;28;20535;-82
2023/01/06 01:22:19;;;;;;;0.10;0.10;;;;;;;;;;4975092;28;20042;-82
2023/01/06 01:24:45;;;;;;;0.10;0.10;;;;;;;;;;4956842;28;20125;-82
2023/01/06 01:27:12;;;;;;;0.10;0.10;;;;;;;;;;4976696;28;20101;-82
2023/01/06 01:29:38;;;;;;;0.10;0.10;;;;;;;;;;4954203;28;20046;-81
2023/01/06 01:32:04;;;;;;;0.10;0.10;;;;;;;;;;4953761;28;20088;-82
2023/01/06 01:34:30;;;;;;;1.70;1.13;;;;;;;;;;4953473;28;20046;-82
2023/01/06 01:36:56;;;;;;;0.10;0.10;;;;;;;;;;4975122;28;20045;-80
2023/01/06 01:39:24;;;;;;;0.10;0.10;;;;;;;;;;4953541;28;20075;-81
2023/01/06 01:41:51;;;;;;;0.85;0.85;;;;;;;;;;4974535;28;20039;-81
2023/01/06 01:44:36;;;;;;;0.10;0.10;;;;;;;;;;4954199;28;20446;-82
2023/01/06 01:47:02;;;;;;;0.10;0.10;;;;;;;;;;4954983;28;20091;-82
2023/01/06 01:49:31;;;;;;;0.00;0.00;;;;;;;;;;4956056;28;20100;-80
2023/01/06 01:51:57;;;;;;;0.10;0.10;;;;;;;;;;4937422;28;21381;-82
2023/01/06 01:54:26;;;;;;;0.10;0.10;;;;;;;;;;4955730;28;20051;-82
2023/01/06 01:56:55;;;;;;;0.10;0.10;;;;;;;;;;4944594;28;20885;-81
2023/01/06 01:59:23;;;;;;;0.10;0.10;;;;;;;;;;4951889;28;20043;-82
2023/01/06 02:01:50;;;;;;;0.10;0.10;;;;;;;;;;4956594;28;20065;-81
2023/01/06 02:04:17;;;;;;;0.10;0.10;;;;;;;;;;4954172;28;21671;-82
2023/01/06 02:06:45;;;;;;;0.10;0.10;;;;;;;;;;4954648;28;20714;-82
2023/01/06 02:09:21;;;;;;;0.00;0.00;;;;;;;;;;4986655;28;20117;-81
2023/01/06 02:11:50;;;;;;;0.10;0.10;;;;;;;;;;4955112;28;21149;-80
2023/01/06 02:14:21;;;;;;;0.10;0.10;;;;;;;;;;4969867;28;20183;-82
2023/01/06 02:16:53;;;;;;;0.10;0.10;;;;;;;;;;4973100;28;20049;-81
2023/01/06 02:19:28;;;;;;;0.10;0.10;;;;;;;;;;4955929;28;20051;-82
2023/01/06 02:21:54;;;;;;;0.10;0.10;;;;;;;;;;4954304;28;20052;-80
2023/01/06 02:24:20;;;;;;;0.17;0.17;;;;;;;;;;4954606;28;20046;-81
2023/01/06 02:27:05;;;;;;;1.17;1.17;;;;;;;;;;4954071;28;20042;-81
2023/01/06 02:30:00;;;;;;;0.70;0.70;;;;;;;;;;4954397;28;20087;-81
2023/01/06 02:32:29;;;;;;;0.10;0.10;;;;;;;;;;4955437;28;20095;-81
2023/01/06 02:35:14;;;;;;;4.47;1.75;;;;;;;;;;4944099;28;20136;-80
2023/01/06 02:38:00;;;;;;;0.10;0.10;;;;;;;;;;4953760;28;20568;-81
2023/01/06 02:40:35;;;;;;;0.15;0.15;;;;;;;;;;4968910;28;20051;-81
2023/01/06 02:43:01;;;;;;;0.10;0.10;;;;;;;;;;4951854;28;20390;-81
2023/01/06 02:45:27;;;;;;;0.13;0.13;;;;;;;;;;4952302;28;20057;-81
2023/01/06 02:48:01;;;;;;;0.10;0.10;;;;;;;;;;4953691;28;20051;-80
2023/01/06 02:50:38;;;;;;;0.10;0.10;;;;;;;;;;4951819;28;20042;-81
2023/01/06 02:53:04;;;;;;;0.10;0.10;;;;;;;;;;4953205;28;20128;-81
2023/01/06 02:55:36;;;;;;;0.10;0.10;;;;;;;;;;4982487;28;20053;-81
2023/01/06 02:58:09;;;;;;;0.10;0.10;;;;;;;;;;4941129;28;20493;-82
2023/01/06 03:01:14;;;;;;;0.10;0.10;;;;;;;;;;4951884;28;20082;-81
2023/01/06 03:03:42;;;;;;;0.10;0.10;;;;;;;;;;4912978;28;20219;-81
2023/01/06 03:06:09;;;;;;;0.00;0.00;;;;;;;;;;4913124;28;20139;-81
2023/01/06 03:08:36;;;;;;;0.95;0.95;;;;;;;;;;4931644;28;20093;-81
2023/01/06 03:11:02;;;;;;;0.10;0.10;;;;;;;;;;4953645;28;20055;-81
2023/01/06 03:13:39;;;;;;;0.00;0.00;;;;;;;;;;4952723;28;21949;-81
2023/01/06 03:16:05;;;;;;;0.10;0.10;;;;;;;;;;4949551;28;20408;-83
2023/01/06 03:18:32;;;;;;;0.00;0.00;;;;;;;;;;4943296;28;20540;-81
2023/01/06 03:21:00;;;;;;;0.50;0.50;;;;;;;;;;4949806;28;20476;-82
2023/01/06 03:23:26;;;;;;;0.10;0.10;;;;;;;;;;4953181;28;20854;-82
2023/01/06 03:25:52;;;;;;;0.10;0.10;;;;;;;;;;4985150;28;20099;-81
2023/01/06 03:28:18;;;;;;;0.10;0.10;;;;;;;;;;4953950;28;20039;-82
2023/01/06 03:30:47;;;;;;;0.00;0.00;;;;;;;;;;4953246;28;20058;-82
2023/01/06 03:33:22;;;;;;;0.15;0.15;;;;;;;;;;4953846;28;20043;-82
2023/01/06 03:36:06;;;;;;;0.10;0.10;;;;;;;;;;4951511;28;20062;-81
2023/01/06 03:38:39;;;;;;;0.00;0.00;;;;;;;;;;4952010;28;20124;-82
2023/01/06 03:41:05;;;;;;;0.10;0.10;;;;;;;;;;4938164;28;20194;-82
2023/01/06 03:43:35;;;;;;;0.10;0.10;;;;;;;;;;4906957;28;20138;-82
2023/01/06 03:46:20;;;;;;;0.10;0.10;;;;;;;;;;4963912;28;20047;-82
2023/01/06 03:48:49;;;;;;;0.65;0.55;;;;;;;;;;4963047;28;20051;-82
2023/01/06 03:51:15;;;;;;;0.10;0.10;;;;;;;;;;4934002;28;20054;-82
2023/01/06 03:53:55;;;;;;;0.10;0.10;;;;;;;;;;4934909;28;20062;-81
2023/01/06 03:56:21;;;;;;;0.10;0.10;;;;;;;;;;4935251;28;20132;-82
2023/01/06 03:58:50;;;;;;;0.10;0.10;;;;;;;;;;4934665;28;20030;-81
2023/01/06 04:01:16;;;;;;;0.10;0.10;;;;;;;;;;4930976;28;20166;-83
2023/01/06 04:03:51;;;;;;;0.10;0.10;;;;;;;;;;4931485;28;20070;-82
2023/01/06 04:06:17;;;;;;;0.10;0.10;;;;;;;;;;4931159;28;20082;-82
2023/01/06 04:08:43;;;;;;;0.10;0.10;;;;;;;;;;4932256;28;20079;-81
2023/01/06 04:12:37;;;;;;;0.10;0.10;;;;;;;;;;4933961;28;20040;-81
2023/01/06 04:13:55;;;;;;;0.15;0.15;;;;;;;;;;4934024;28;20058;-81
2023/01/06 04:16:21;;;;;;;0.10;0.10;;;;;;;;;;4934247;28;20059;-82
2023/01/06 04:18:47;;;;;;;0.10;0.10;;;;;;;;;;4932681;28;20042;-81
2023/01/06 04:21:13;;;;;;;0.40;0.40;;;;;;;;;;4933657;28;20055;-81
2023/01/06 04:23:39;;;;;;;0.50;0.50;;;;;;;;;;4909088;28;20470;-81
2023/01/06 04:26:05;;;;;;;0.47;0.47;;;;;;;;;;4935918;28;20043;-80
2023/01/06 04:28:32;;;;;;;0.10;0.10;;;;;;;;;;4919844;28;20047;-80
2023/01/06 04:30:58;;;;;;;0.10;0.10;;;;;;;;;;4934751;28;20435;-80
2023/01/06 04:33:25;;;;;;;0.10;0.10;;;;;;;;;;4934596;28;20045;-81
2023/01/06 04:35:51;;;;;;;0.10;0.10;;;;;;;;;;4935530;28;20058;-79
2023/01/06 04:38:17;;;;;;;0.10;0.10;;;;;;;;;;4935550;28;20058;-80
2023/01/06 04:40:43;;;;;;;0.17;0.17;;;;;;;;;;4936761;28;20056;-80
2023/01/06 04:43:15;;;;;;;0.10;0.10;;;;;;;;;;4941729;28;21283;-80
2023/01/06 04:45:41;;;;;;;0.10;0.10;;;;;;;;;;4971116;28;20493;-80
2023/01/06 04:48:08;;;;;;;0.10;0.10;;;;;;;;;;4955848;28;20047;-80
2023/01/06 04:50:34;;;;;;;0.10;0.10;;;;;;;;;;4968451;28;20061;-80
2023/01/06 04:53:00;;;;;;;0.10;0.10;;;;;;;;;;4938587;28;20082;-80
2023/01/06 04:55:26;;;;;;;0.10;0.10;;;;;;;;;;4967570;28;20051;-80
2023/01/06 04:57:53;;;;;;;0.10;0.10;;;;;;;;;;4939803;28;20051;-79
2023/01/06 05:00:19;;;;;;;0.38;0.35;;;;;;;;;;4938605;28;20457;-80
2023/01/06 05:02:45;;;;;;;0.10;0.10;;;;;;;;;;4937844;28;20051;-79
2023/01/06 05:05:12;;;;;;;0.10;0.10;;;;;;;;;;4940050;28;20045;-79
2023/01/06 05:07:38;;;;;;;0.10;0.10;;;;;;;;;;4939017;28;20066;-83
2023/01/06 05:10:05;;;;;;;0.10;0.10;;;;;;;;;;4950445;28;20044;-80
2023/01/06 05:12:32;;;;;;;0.10;0.10;;;;;;;;;;4940451;28;20054;-80
2023/01/06 05:14:58;;;;;;;0.10;0.10;;;;;;;;;;4940982;28;20628;-80
2023/01/06 05:17:24;;;;;;;0.10;0.10;;;;;;;;;;4969251;28;20105;-81
2023/01/06 05:19:50;;;;;;;0.10;0.10;;;;;;;;;;4941769;28;20107;-80
2023/01/06 05:22:16;;;;;;;0.10;0.10;;;;;;;;;;4938373;28;20056;-80
2023/01/06 05:24:42;;;;;;;0.10;0.10;;;;;;;;;;4970039;28;20047;-81
2023/01/06 05:27:08;;;;;;;0.10;0.10;;;;;;;;;;4940054;28;20055;-81
2023/01/06 05:29:34;;;;;;;0.10;0.10;;;;;;;;;;4936451;28;21797;-81
2023/01/06 05:32:00;;;;;;;0.13;0.13;;;;;;;;;;4938957;28;20466;-81
2023/01/06 05:34:27;;;;;;;0.10;0.10;;;;;;;;;;4944407;28;20043;-78
2023/01/06 05:36:53;;;;;;;0.00;0.00;;;;;;;;;;4937084;28;20057;-80
2023/01/06 05:39:19;;;;;;;0.10;0.10;;;;;;;;;;4941650;28;20061;-81
2023/01/06 05:41:45;;;;;;;0.10;0.10;;;;;;;;;;4953226;28;20252;-80
2023/01/06 05:44:11;;;;;;;0.10;0.10;;;;;;;;;;4955803;28;20084;-81
2023/01/06 05:46:37;;;;;;;0.00;0.00;;;;;;;;;;4953371;28;20046;-80
2023/01/06 05:49:03;;;;;;;0.10;0.10;;;;;;;;;;4952519;28;20037;-81
2023/01/06 05:51:29;;;;;;;0.10;0.10;;;;;;;;;;4955726;28;20049;-81
2023/01/06 05:53:56;;;;;;;0.00;0.00;;;;;;;;;;4955560;28;20266;-81
2023/01/06 05:56:23;;;;;;;0.10;0.10;;;;;;;;;;4955254;28;20054;-81
2023/01/06 05:58:50;;;;;;;0.10;0.10;;;;;;;;;;4953707;28;20166;-81
2023/01/06 06:01:16;;;;;;;0.10;0.10;;;;;;;;;;4973430;28;20153;-81
2023/01/06 06:03:42;;;;;;;0.10;0.10;;;;;;;;;;4974673;28;20477;-80
2023/01/06 06:06:08;;;;;;;0.10;0.10;;;;;;;;;;4974737;28;20046;-81
2023/01/06 06:08:34;;;;;;;0.57;0.57;;;;;;;;;;4955071;28;20038;-81
2023/01/06 06:11:04;;;;;;;0.10;0.10;;;;;;;;;;4954862;28;20052;-82
2023/01/06 06:13:30;;;;;;;0.10;0.10;;;;;;;;;;4954854;28;20054;-81
2023/01/06 06:16:10;;;;;;;0.10;0.10;;;;;;;;;;4977638;28;20050;-83
2023/01/06 06:18:43;;;;;;;0.10;0.10;;;;;;;;;;4976047;28;20046;-84
2023/01/06 06:21:10;;;;;;;0.10;0.10;;;;;;;;;;4975608;28;20222;-85
2023/01/06 06:23:36;;;;;;;0.10;0.10;;;;;;;;;;4956656;28;20069;-81
2023/01/06 06:26:02;;;;;;;0.10;0.10;;;;;;;;;;4948725;28;20133;-83
2023/01/06 06:28:32;;;;;;;0.10;0.10;;;;;;;;;;4976110;28;20156;-79
2023/01/06 06:31:05;;;;;;;0.10;0.10;;;;;;;;;;4976381;28;20749;-82
2023/01/06 06:33:32;;;;;;;0.10;0.10;;;;;;;;;;5028624;28;20054;-83
2023/01/06 06:35:58;;;;;;;0.10;0.10;;;;;;;;;;4978828;28;20046;-81
2023/01/06 06:38:24;;;;;;;0.15;0.15;;;;;;;;;;4952533;28;20061;-79
2023/01/06 06:40:50;;;;;;;0.10;0.10;;;;;;;;;;4941956;28;20058;-80
2023/01/06 06:43:16;;;;;;;0.10;0.10;;;;;;;;;;4935881;28;20595;-80
2023/01/06 06:45:46;;;;;;;0.22;0.22;;;;;;;;;;4935458;28;20152;-80
2023/01/06 06:48:12;;;;;;;0.57;0.57;;;;;;;;;;4936772;28;20221;-80
2023/01/06 06:50:38;;;;;;;0.10;0.10;;;;;;;;;;4937321;28;20134;-81
2023/01/06 06:53:04;;;;;;;1.30;1.23;;;;;;;;;;4934525;28;20116;-80
2023/01/06 06:55:30;;;;;;;0.10;0.10;;;;;;;;;;4937390;28;20574;-80
2023/01/06 06:57:56;;;;;;;0.10;0.10;;;;;;;;;;4935417;28;20077;-80
2023/01/06 07:00:23;;;;;;;0.10;0.10;;;;;;;;;;4936036;28;20875;-80
2023/01/06 07:02:49;;;;;;;0.10;0.10;;;;;;;;;;4934077;28;20043;-82
2023/01/06 07:05:16;;;;;;;0.10;0.10;;;;;;;;;;4939477;28;20424;-82
2023/01/06 07:07:42;;;;;;;0.10;0.10;;;;;;;;;;4923147;28;20643;-82
2023/01/06 07:10:08;;;;;;;0.10;0.10;;;;;;;;;;4936903;28;20173;-81
2023/01/06 07:12:34;;;;;;;0.10;0.10;;;;;;;;;;4933391;28;20562;-82
2023/01/06 07:15:00;;;;;;;0.10;0.10;;;;;;;;;;4935029;28;20138;-81
2023/01/06 07:17:27;;;;;;;0.10;0.10;;;;;;;;;;4937423;28;20156;-80
2023/01/06 07:19:53;;;;;;;0.10;0.10;;;;;;;;;;4937852;28;20447;-79
2023/01/06 07:22:19;;;;;;;0.10;0.10;;;;;;;;;;4936522;28;20053;-80
2023/01/06 07:24:45;;;;;;;0.10;0.10;;;;;;;;;;4937233;28;20566;-79
2023/01/06 07:27:11;;;;;;;0.22;0.22;;;;;;;;;;4936920;28;20063;-79
2023/01/06 07:29:37;;;;;;;0.10;0.10;;;;;;;;;;4939307;28;20047;-80
2023/01/06 07:32:04;;;;;;;0.10;0.10;;;;;;;;;;4969701;28;20229;-80
2023/01/06 07:34:30;;;;;;;0.10;0.10;;;;;;;;;;4935307;28;20062;-79
2023/01/06 07:36:56;;;;;;;0.00;0.00;;;;;;;;;;4938013;28;20047;-81
2023/01/06 07:39:23;;;;;;;0.10;0.10;;;;;;;;;;4937566;28;20079;-79
2023/01/06 07:41:49;;;;;;;0.00;0.00;;;;;;;;;;4955678;28;20510;-80
2023/01/06 07:44:15;;;;;;;0.10;0.10;;;;;;;;;;4937102;28;20065;-80
2023/01/06 07:46:41;;;;;;;0.10;0.10;;;;;;;;;;4909295;28;20393;-81
2023/01/06 07:49:07;;;;;;;0.10;0.10;;;;;;;;;;4939457;28;21862;-81
2023/01/06 07:51:33;;;;;;;0.10;0.10;;;;;;;;;;4938053;28;20444;-82
2023/01/06 07:53:59;;;;;;;0.00;0.00;;;;;;;;;;4937642;28;20051;-81
2023/01/06 07:56:25;;;;;;;0.10;0.10;;;;;;;;;;4937703;28;20047;-80
2023/01/06 07:58:53;;;;;;;0.10;0.10;;;;;;;;;;4938626;28;20050;-79
2023/01/06 08:01:19;;;;;;;0.10;0.10;;;;;;;;;;4953048;28;20047;-80
2023/01/06 08:03:46;;;;;;;0.10;0.10;;;;;;;;;;4945738;28;20077;-80
2023/01/06 08:06:12;;;;;;;2.58;1.17;;;;;;;;;;4934725;28;20047;-80
2023/01/06 08:08:38;;;;;;;0.10;0.10;;;;;;;;;;4923197;28;20483;-80
2023/01/06 08:11:05;;;;;;;0.10;0.10;;;;;;;;;;4934364;28;20694;-82
2023/01/06 08:13:32;;;;;;;0.00;0.00;;;;;;;;;;4933518;28;20081;-79
2023/01/06 08:15:59;;;;;;;0.10;0.10;;;;;;;;;;4936635;28;20573;-80
2023/01/06 08:18:25;;;;;;;0.10;0.10;;;;;;;;;;4936417;28;20444;-85
2023/01/06 08:20:51;;;;;;;0.00;0.00;;;;;;;;;;4936602;28;20047;-83
2023/01/06 08:23:17;;;;;;;0.10;0.10;;;;;;;;;;4911438;28;20166;-85
2023/01/06 08:25:43;;;;;;;0.00;0.00;;;;;;;;;;4937412;28;20050;-82
2023/01/06 08:28:09;;;;;;;0.10;0.10;;;;;;;;;;4906348;28;20135;-82
2023/01/06 08:30:38;;;;;;;0.10;0.10;;;;;;;;;;4935457;28;20051;-81
2023/01/06 08:33:05;;;;;;;0.10;0.10;;;;;;;;;;4933633;28;20151;-81
2023/01/06 08:35:31;;;;;;;0.93;0.90;;;;;;;;;;4918196;28;20054;-80
2023/01/06 08:37:57;;;;;;;0.10;0.10;;;;;;;;;;4970907;28;20075;-80
2023/01/06 08:40:23;;;;;;;0.10;0.10;;;;;;;;;;4924407;28;20066;-81
2023/01/06 08:42:49;;;;;;;0.10;0.10;;;;;;;;;;4937013;28;20081;-80
2023/01/06 08:45:15;;;;;;;0.10;0.10;;;;;;;;;;4935670;28;20073;-81
2023/01/06 08:47:41;;;;;;;0.10;0.10;;;;;;;;;;4936704;28;20046;-80
2023/01/06 08:50:07;;;;;;;0.10;0.10;;;;;;;;;;4937949;28;20762;-79
2023/01/06 08:52:33;;;;;;;0.10;0.10;;;;;;;;;;4935581;28;20062;-80
2023/01/06 08:54:59;;;;;;;0.10;0.10;;;;;;;;;;4936037;28;20042;-80
2023/01/06 08:57:25;;;;;;;0.10;0.10;;;;;;;;;;4938067;28;20058;-81
2023/01/06 08:59:51;;;;;;;0.10;0.10;;;;;;;;;;4938861;28;20047;-80
2023/01/06 09:02:17;;;;;;;0.10;0.10;;;;;;;;;;4937218;28;20043;-80
2023/01/06 09:04:43;;;;;;;0.10;0.10;;;;;;;;;;4937127;28;20043;-80
2023/01/06 09:07:09;;;;;;;0.10;0.10;;;;;;;;;;4941334;28;20157;-80
2023/01/06 09:09:35;;;;;;;2.40;2.30;;;;;;;;;;4941194;28;20074;-80
2023/01/06 09:12:01;;;;;;;0.10;0.10;;;;;;;;;;4939432;28;20658;-80
2023/01/06 09:14:28;;;;;;;0.10;0.10;;;;;;;;;;4941965;28;20549;-82
2023/01/06 09:16:54;;;;;;;0.10;0.10;;;;;;;;;;4942430;28;20047;-80
2023/01/06 09:19:21;;;;;;;0.10;0.10;;;;;;;;;;4940452;28;20039;-82
2023/01/06 09:21:47;;;;;;;0.10;0.10;;;;;;;;;;4972128;28;20177;-81
2023/01/06 09:24:14;;;;;;;0.10;0.10;;;;;;;;;;4943150;28;20043;-81
2023/01/06 09:26:41;;;;;;;0.00;0.00;;;;;;;;;;4941949;28;20105;-81
2023/01/06 09:29:07;;;;;;;0.10;0.10;;;;;;;;;;4941389;28;20109;-81
2023/01/06 09:31:33;;;;;;;0.10;0.10;;;;;;;;;;4940957;28;20046;-81
2023/01/06 09:33:59;;;;;;;0.13;0.13;;;;;;;;;;4942747;28;20113;-81
2023/01/06 09:36:25;;;;;;;0.10;0.10;;;;;;;;;;4940991;28;20104;-80
2023/01/06 09:38:51;;;;;;;0.10;0.10;;;;;;;;;;4941803;28;20051;-80
2023/01/06 09:41:18;;;;;;;0.22;0.22;;;;;;;;;;4944840;28;20055;-81
2023/01/06 09:43:56;;;;;;;0.10;0.10;;;;;;;;;;4946179;28;20058;-80
2023/01/06 09:46:27;;;;;;;0.10;0.10;;;;;;;;;;4945637;28;20047;-80
2023/01/06 09:48:53;;;;;;;0.10;0.10;;;;;;;;;;4942488;28;20778;-81
2023/01/06 09:51:20;;;;;;;0.10;0.10;;;;;;;;;;4942906;28;20053;-81
2023/01/06 09:54:13;;;;;;;0.00;0.00;;;;;;;;;;4941798;28;20050;-80
2023/01/06 09:56:41;;;;;;;0.10;0.10;;;;;;;;;;4977027;28;20147;-81
2023/01/06 09:59:11;;;;;;;0.10;0.10;;;;;;;;;;4973360;28;20042;-79
2023/01/06 10:01:39;;;;;;;0.10;0.10;;;;;;;;;;4944726;28;20063;-80
2023/01/06 10:04:06;;;;;;;0.10;0.10;;;;;;;;;;4942592;28;20134;-79
2023/01/06 10:06:44;;;;;;;0.10;0.10;;;;;;;;;;4928590;28;20062;-80
2023/01/06 10:09:13;;;;;;;0.10;0.10;;;;;;;;;;4942322;28;20393;-79
2023/01/06 10:11:49;;;;;;;0.10;0.10;;;;;;;;;;4941694;28;20062;-80
2023/01/06 10:14:20;;;;;;;0.10;0.10;;;;;;;;;;4941292;28;20059;-80
2023/01/06 10:17:05;;;;;;;0.10;0.10;;;;;;;;;;4940190;28;20054;-80
2023/01/06 10:19:43;;;;;;;0.10;0.10;;;;;;;;;;4941071;28;21723;-80
2023/01/06 10:22:35;;;;;;;0.10;0.10;;;;;;;;;;4975570;28;20434;-80
2023/01/06 10:25:05;;;;;;;0.10;0.10;;;;;;;;;;4942173;28;20131;-80
2023/01/06 10:27:42;;;;;;;0.10;0.10;;;;;;;;;;4941090;28;20596;-83
2023/01/06 10:30:19;;;;;;;0.10;0.10;;;;;;;;;;4972166;28;20576;-83
2023/01/06 10:32:46;;;;;;;0.10;0.10;;;;;;;;;;4937541;28;20089;-84
2023/01/06 10:35:15;;;;;;;0.10;0.10;;;;;;;;;;4941350;28;20684;-80
2023/01/06 10:37:42;;;;;;;0.10;0.10;;;;;;;;;;4961681;28;20703;-80
2023/01/06 10:40:22;;;;;;;0.10;0.10;;;;;;;;;;4949663;28;20066;-82
2023/01/06 10:42:57;;;;;;;0.10;0.10;;;;;;;;;;4922912;28;20079;-82
2023/01/06 10:45:51;;;;;;;0.10;0.10;;;;;;;;;;4908946;28;20173;-81
2023/01/06 10:48:19;;;;;;;0.10;0.10;;;;;;;;;;4936908;28;20085;-83
2023/01/06 10:50:45;;;;;;;0.10;0.10;;;;;;;;;;4936634;28;20151;-82
2023/01/06 10:53:12;;;;;;;0.10;0.10;;;;;;;;;;4937292;28;20054;-81
2023/01/06 10:55:51;;;;;;;0.10;0.10;;;;;;;;;;4938630;28;20697;-81
2023/01/06 10:58:20;;;;;;;0.20;0.20;;;;;;;;;;4939565;28;21726;-82
2023/01/06 11:01:05;;;;;;;0.10;0.10;;;;;;;;;;4936089;28;20053;-82
2023/01/06 11:03:31;;;;;;;0.10;0.10;;;;;;;;;;4938136;28;20876;-82
2023/01/06 11:06:03;;;;;;;0.10;0.10;;;;;;;;;;4937691;28;20086;-82
2023/01/06 11:08:29;;;;;;;0.10;0.10;;;;;;;;;;4937980;28;20043;-82
2023/01/06 11:10:56;;;;;;;0.10;0.10;;;;;;;;;;4938135;28;20090;-81
2023/01/06 11:13:31;;;;;;;0.10;0.10;;;;;;;;;;4936494;28;20043;-82
2023/01/06 11:15:58;;;;;;;0.10;0.10;;;;;;;;;;4971060;28;20057;-82
2023/01/06 11:18:26;;;;;;;0.30;0.30;;;;;;;;;;4939399;28;20043;-82
2023/01/06 11:21:01;;;;;;;0.10;0.10;;;;;;;;;;4938644;28;20059;-82
2023/01/06 11:23:28;;;;;;;0.10;0.10;;;;;;;;;;4938152;28;20134;-83
2023/01/06 11:26:02;;;;;;;0.10;0.10;;;;;;;;;;4922350;28;20066;-82
2023/01/06 11:28:29;;;;;;;;;;;;;;;;;;4936877;28;20496;-84
2023/01/06 11:30:58;;;;;;;0.10;0.10;;;;;;;;;;4939182;28;19926;-82
2023/01/06 11:33:26;;;;;;;0.10;0.10;;;;;;;;;;4938037;28;20058;-83
2023/01/06 11:35:52;;;;;;;0.10;0.10;;;;;;;;;;4936853;28;20051;-81
2023/01/06 11:38:19;;;;;;;0.13;0.13;;;;;;;;;;4937155;28;20096;-82
2023/01/06 11:40:47;;;;;;;0.00;0.00;;;;;;;;;;4936417;28;20055;-80
2023/01/06 11:43:30;;;;;;;0.10;0.10;;;;;;;;;;4938189;28;20897;-81
2023/01/06 11:46:01;;;;;;;0.10;0.10;;;;;;;;;;4942736;28;20108;-86
2023/01/06 11:48:29;;;;;;;0.10;0.10;;;;;;;;;;4938576;28;20043;-86
2023/01/06 11:50:57;;;;;;;0.10;0.10;;;;;;;;;;4937724;28;20070;-85
2023/01/06 11:53:23;;;;;;;0.28;0.28;;;;;;;;;;4938909;28;20054;-87
2023/01/06 11:55:55;;;;;;;0.00;0.00;;;;;;;;;;4940030;28;20054;-85
2023/01/06 11:58:26;;;;;;;0.10;0.10;;;;;;;;;;4936793;28;20042;-87
2023/01/06 12:00:54;;;;;;;0.10;0.10;;;;;;;;;;4940405;28;20789;-84
2023/01/06 12:03:30;;;;;;;0.10;0.10;;;;;;;;;;4938927;28;20091;-85
2023/01/06 12:06:05;;;;;;;0.10;0.10;;;;;;;;;;4940117;28;20101;-85
2023/01/06 12:08:32;;;;;;;0.10;0.10;;;;;;;;;;4939435;28;20547;-85
2023/01/06 12:11:08;;;;;;;0.10;0.10;;;;;;;;;;4936719;28;21498;-84
2023/01/06 12:13:34;;;;;;;0.10;0.10;;;;;;;;;;4924095;28;20062;-87
2023/01/06 12:16:04;;;;;;;0.10;0.10;;;;;;;;;;4938356;28;20446;-84
2023/01/06 12:18:44;;;;;;;0.10;0.10;;;;;;;;;;4937482;28;20495;-86
2023/01/06 12:21:15;;;;;;;0.10;0.10;;;;;;;;;;4938136;28;20052;-86
2023/01/06 12:23:45;;;;;;;0.10;0.10;;;;;;;;;;4938456;28;20129;-85
2023/01/06 12:26:19;;;;;;;0.25;0.25;;;;;;;;;;4937136;28;20640;-84
2023/01/06 12:28:50;;;;;;;0.10;0.10;;;;;;;;;;4937314;28;20696;-84
2023/01/06 12:31:33;;;;;;;0.10;0.10;;;;;;;;;;4909948;28;20138;-85
2023/01/06 12:34:24;;;;;;;0.10;0.10;;;;;;;;;;4935642;28;20089;-89
2023/01/06 12:37:03;;;;;;;0.10;0.10;;;;;;;;;;4934318;28;20105;-87
2023/01/06 12:39:32;;;;;;;0.00;0.00;;;;;;;;;;4934847;28;20556;-80
2023/01/06 12:42:25;;;;;;;0.10;0.10;;;;;;;;;;4949332;28;20054;-82
2023/01/06 12:44:57;;;;;;;0.10;0.10;;;;;;;;;;4940531;28;21873;-81
2023/01/06 12:47:26;;;;;;;0.10;0.10;;;;;;;;;;4937650;28;20047;-81
2023/01/06 12:49:52;;;;;;;0.10;0.10;;;;;;;;;;4941252;28;20085;-81
2023/01/06 12:52:21;;;;;;;0.10;0.10;;;;;;;;;;4935210;28;20047;-82
2023/01/06 12:54:51;;;;;;;0.10;0.10;;;;;;;;;;4937192;28;20497;-80
2023/01/06 12:57:20;;;;;;;0.10;0.10;;;;;;;;;;4936531;28;20097;-81
2023/01/06 13:00:12;;;;;;;0.10;0.10;;;;;;;;;;4935951;28;20051;-81
2023/01/06 13:02:38;;;;;;;0.10;0.10;;;;;;;;;;4934372;28;20398;-80
2023/01/06 13:05:23;;;;;;;3.00;2.22;;;;;;;;;;4941698;28;20157;-82
2023/01/06 13:07:58;;;;;;;0.65;0.65;;;;;;;;;;4940138;28;20050;-80
2023/01/06 13:10:24;;;;;;;0.10;0.10;;;;;;;;;;4937619;28;20065;-81
2023/01/06 13:12:56;;;;;;;0.10;0.10;;;;;;;;;;4939560;28;20047;-81
2023/01/06 13:15:25;;;;;;;0.10;0.10;;;;;;;;;;4941975;28;20070;-81
2023/01/06 13:18:10;;;;;;;0.10;0.10;;;;;;;;;;4937358;28;20500;-80
2023/01/06 13:20:40;;;;;;;0.10;0.10;;;;;;;;;;4936966;28;20105;-81
2023/01/06 13:23:25;;;;;;;0.10;0.10;;;;;;;;;;4939549;28;20363;-83
2023/01/06 13:26:01;;;;;;;0.10;0.10;;;;;;;;;;4935530;28;20049;-77
2023/01/06 13:28:36;;;;;;;0.00;0.00;;;;;;;;;;4935483;28;20050;-76
2023/01/06 13:31:11;;;;;;;0.10;0.10;;;;;;;;;;4934889;28;20051;-79
2023/01/06 13:33:45;;;;;;;0.00;0.00;;;;;;;;;;4933612;28;20052;-78
2023/01/06 13:36:14;;;;;;;0.10;0.10;;;;;;;;;;4935669;28;20805;-78
2023/01/06 13:38:49;;;;;;;0.10;0.10;;;;;;;;;;4935798;28;20054;-78
2023/01/06 13:41:17;;;;;;;0.10;0.10;;;;;;;;;;4942744;28;20090;-77
2023/01/06 13:43:44;;;;;;;0.10;0.10;;;;;;;;;;4985071;28;20067;-76
2023/01/06 13:46:10;;;;;;;;;;;;;;;;;;4954031;28;20129;-74
2023/01/06 13:48:39;;;;;;;0.10;0.10;;;;;;;;;;4954269;28;19952;-74
2023/01/06 13:51:07;;;;;;;0.10;0.10;;;;;;;;;;4953817;28;20054;-72
2023/01/06 13:53:39;;;;;;;0.10;0.10;;;;;;;;;;4953633;28;20051;-74
2023/01/06 13:56:12;;;;;;;0.10;0.10;;;;;;;;;;4955020;28;20124;-74
2023/01/06 13:58:39;;;;;;;0.10;0.10;;;;;;;;;;4952483;28;20107;-74
2023/01/06 14:01:05;;;;;;;0.10;0.10;;;;;;;;;;4954242;28;20202;-76
2023/01/06 14:03:32;;;;;;;0.10;0.10;;;;;;;;;;4955055;28;20042;-78
2023/01/06 14:05:59;;;;;;;0.10;0.10;;;;;;;;;;4953820;28;20050;-77
2023/01/06 14:08:27;;;;;;;0.10;0.10;;;;;;;;;;4953131;28;20924;-77
2023/01/06 14:11:12;;;;;;;0.10;0.10;;;;;;;;;;4952252;28;20057;-77
2023/01/06 14:13:39;;;;;;;0.10;0.10;;;;;;;;;;4955885;28;20061;-77
2023/01/06 14:16:10;;;;;;;0.10;0.10;;;;;;;;;;4953707;28;20085;-77
2023/01/06 14:18:36;;;;;;;;;;;;;;;;;;4985301;28;20042;-80
2023/01/06 14:21:02;;;;;;;;;;;;;;;;;;4959699;28;19984;-78
2023/01/06 14:23:29;;;;;;;;;;;;;;;;;;4984071;28;19922;-77
2023/01/06 14:25:56;;;;;;;0.10;0.10;;;;;;;;;;4953622;28;20052;-79
2023/01/06 14:28:22;;;;;;;0.10;0.10;;;;;;;;;;4955347;28;20051;-78
2023/01/06 14:30:49;;;;;;;0.32;0.32;;;;;;;;;;4984102;28;20038;-77
2023/01/06 14:33:27;;;;;;;0.10;0.10;;;;;;;;;;4952027;28;20046;-77
2023/01/06 14:36:00;;;;;;;0.10;0.10;;;;;;;;;;4953652;28;20043;-75
2023/01/06 14:38:29;;;;;;;0.10;0.10;;;;;;;;;;4953842;28;20489;-74
2023/01/06 14:40:55;;;;;;;;;;;;;;;;;;4960679;28;20114;-77
2023/01/06 14:43:28;;;;;;;0.10;0.10;;;;;;;;;;4983620;28;20818;-76
2023/01/06 14:45:54;;;;;;;0.10;0.10;;;;;;;;;;4972788;28;20046;-78
2023/01/06 14:48:22;;;;;;;0.00;0.00;;;;;;;;;;4953197;28;20788;-80
2023/01/06 14:50:51;;;;;;;0.10;0.10;;;;;;;;;;4945474;28;20049;-79
2023/01/06 14:53:35;;;;;;;0.10;0.10;;;;;;;;;;4969641;28;20073;-81
2023/01/06 14:56:01;;;;;;;0.10;0.10;;;;;;;;;;4953228;28;20392;-79
2023/01/06 14:58:29;;;;;;;0.10;0.10;;;;;;;;;;4956025;28;20114;-78